createdAt,value
2018-03-26T00:02:05.332Z,42.20
2018-03-26T00:04:33.595Z,38.60
2018-03-26T00:07:01.868Z,43.47
2018-03-26T00:09:30.122Z,40.17
2018-03-26T00:11:59.157Z,42.63
2018-03-26T00:14:27.415Z,41.07
2018-03-26T00:16:56.464Z,47.50
2018-03-26T00:19:24.716Z,48.60
2018-03-26T00:21:53.133Z,40.43
2018-03-26T00:24:22.094Z,42.20
2018-03-26T00:26:50.362Z,43.67
2018-03-26T00:29:18.622Z,42.17
2018-03-26T00:31:47.666Z,45.10
2018-03-26T00:34:15.926Z,41.07
2018-03-26T00:36:44.209Z,41.10
2018-03-26T00:39:13.234Z,41.60
2018-03-26T00:41:41.521Z,47.13
2018-03-26T00:44:09.785Z,42.30
2018-03-26T00:46:38.049Z,42.90
2018-03-26T00:49:06.313Z,43.27
2018-03-26T00:51:34.586Z,41.50
2018-03-26T00:54:02.842Z,42.30
2018-03-26T00:56:31.109Z,44.03
2018-03-26T00:58:59.363Z,41.53
2018-03-26T01:01:27.643Z,46.43
2018-03-26T01:03:55.913Z,44.07
2018-03-26T01:06:24.955Z,40.77
2018-03-26T01:08:53.215Z,42.07
2018-03-26T01:11:21.482Z,47.13
2018-03-26T01:13:50.500Z,44.63
2018-03-26T01:16:18.770Z,38.53
2018-03-26T01:18:47.034Z,44.00
2018-03-26T01:21:16.068Z,48.03
2018-03-26T01:23:44.322Z,39.53
2018-03-26T01:26:12.597Z,43.70
2018-03-26T01:28:41.641Z,46.50
2018-03-26T01:31:09.927Z,39.43
2018-03-26T01:33:38.181Z,46.20
2018-03-26T01:36:06.445Z,42.10
2018-03-26T01:38:34.701Z,40.97
2018-03-26T01:41:02.966Z,42.20
2018-03-26T01:43:31.228Z,42.70
2018-03-26T01:45:59.508Z,42.40
2018-03-26T01:48:27.796Z,47.63
2018-03-26T01:50:56.047Z,46.40
2018-03-26T01:53:24.327Z,45.53
2018-03-26T01:55:52.589Z,41.90
2018-03-26T01:58:21.617Z,44.63
2018-03-26T02:00:49.877Z,46.23
2018-03-26T02:03:18.148Z,45.20
2018-03-26T02:05:47.157Z,45.60
2018-03-26T02:08:16.187Z,51.00
2018-03-26T02:10:44.437Z,48.10
2018-03-26T02:13:13.477Z,48.90
2018-03-26T02:15:41.750Z,47.00
2018-03-26T02:18:10.046Z,44.60
2018-03-26T02:20:38.319Z,46.80
2018-03-26T02:23:06.577Z,42.67
2018-03-26T02:25:34.847Z,43.03
2018-03-26T02:28:03.858Z,47.10
2018-03-26T02:30:32.108Z,44.10
2018-03-26T02:33:01.135Z,46.43
2018-03-26T02:35:29.400Z,46.40
2018-03-26T02:37:58.537Z,48.23
2018-03-26T02:40:26.787Z,45.13
2018-03-26T02:42:55.067Z,44.87
2018-03-26T02:45:24.090Z,42.90
2018-03-26T02:47:52.354Z,47.20
2018-03-26T02:50:20.606Z,44.70
2018-03-26T02:52:48.862Z,48.50
2018-03-26T02:55:17.132Z,47.50
2018-03-26T02:57:45.417Z,43.00
2018-03-26T03:00:13.658Z,42.97
2018-03-26T03:02:42.685Z,47.50
2018-03-26T03:05:10.938Z,48.07
2018-03-26T03:07:39.243Z,46.50
2018-03-26T03:10:07.541Z,46.20
2018-03-26T03:12:36.592Z,46.23
2018-03-26T03:15:05.609Z,48.03
2018-03-26T03:17:33.881Z,50.77
2018-03-26T03:20:11.371Z,45.53
2018-03-26T03:22:40.425Z,45.23
2018-03-26T03:25:08.680Z,45.83
2018-03-26T03:27:36.947Z,50.00
2018-03-26T03:30:05.721Z,52.37
2018-03-26T03:32:34.054Z,46.20
2018-03-26T03:35:02.325Z,50.97
2018-03-26T03:37:30.609Z,47.80
2018-03-26T03:39:58.848Z,48.30
2018-03-26T03:42:27.882Z,53.60
2018-03-26T03:44:56.132Z,53.83
2018-03-26T03:47:25.160Z,47.63
2018-03-26T03:49:53.410Z,52.57
2018-03-26T03:52:22.440Z,50.33
2018-03-26T03:54:50.916Z,49.43
2018-03-26T03:57:19.174Z,48.37
2018-03-26T03:59:49.200Z,49.03
2018-03-26T04:02:18.242Z,50.30
2018-03-26T04:04:46.487Z,49.70
2018-03-26T04:07:14.752Z,48.23
2018-03-26T04:09:43.776Z,47.50
2018-03-26T04:12:12.050Z,49.90
2018-03-26T04:14:40.377Z,46.33
2018-03-26T04:17:08.651Z,49.97
2018-03-26T04:19:36.889Z,46.43
2018-03-26T04:22:05.150Z,50.27
2018-03-26T04:24:33.398Z,53.90
2018-03-26T04:27:01.671Z,46.17
2018-03-26T04:29:29.941Z,49.43
2018-03-26T04:31:59.203Z,51.43
2018-03-26T04:34:27.438Z,48.50
2018-03-26T04:36:55.712Z,53.87
2018-03-26T04:39:23.962Z,52.13
2018-03-26T04:41:52.986Z,49.43
2018-03-26T04:44:21.249Z,48.43
2018-03-26T04:46:49.495Z,49.33
2018-03-26T04:49:17.876Z,50.07
2018-03-26T04:51:46.116Z,51.07
2018-03-26T04:54:14.387Z,52.00
2018-03-26T04:56:42.685Z,50.03
2018-03-26T04:59:10.943Z,55.10
2018-03-26T05:01:39.212Z,50.00
2018-03-26T05:04:08.233Z,52.73
2018-03-26T05:06:36.474Z,46.80
2018-03-26T05:09:05.530Z,51.80
2018-03-26T05:11:33.761Z,51.50
2018-03-26T05:14:02.807Z,48.67
2018-03-26T05:16:31.057Z,50.77
2018-03-26T05:18:59.324Z,54.83
2018-03-26T05:21:28.264Z,48.80
2018-03-26T05:23:56.535Z,52.30
2018-03-26T05:26:24.789Z,54.90
2018-03-26T05:28:53.368Z,49.17
2018-03-26T05:31:22.433Z,50.03
2018-03-26T05:33:51.030Z,47.67
2018-03-26T05:36:19.257Z,49.40
2018-03-26T05:38:47.519Z,57.87
2018-03-26T05:41:16.531Z,49.10
2018-03-26T05:43:45.948Z,49.27
2018-03-26T05:46:14.226Z,47.57
2018-03-26T05:48:42.500Z,46.00
2018-03-26T05:51:10.758Z,45.37
2018-03-26T05:53:40.320Z,53.83
2018-03-26T05:56:08.603Z,46.57
2018-03-26T05:58:36.873Z,50.70
2018-03-26T06:01:05.148Z,47.23
2018-03-26T06:03:33.430Z,49.93
2018-03-26T06:06:01.673Z,41.23
2018-03-26T06:08:30.707Z,45.30
2018-03-26T06:10:58.964Z,52.23
2018-03-26T06:13:27.987Z,47.80
2018-03-26T06:15:56.274Z,52.43
2018-03-26T06:18:24.538Z,46.23
2018-03-26T06:20:52.810Z,44.10
2018-03-26T06:23:22.518Z,45.73
2018-03-26T06:25:51.540Z,44.70
2018-03-26T06:28:19.811Z,51.60
2018-03-26T06:30:48.074Z,47.20
2018-03-26T06:33:17.117Z,42.63
2018-03-26T06:35:45.358Z,46.27
2018-03-26T06:38:25.089Z,44.83
2018-03-26T06:40:53.331Z,48.83
2018-03-26T06:43:21.592Z,44.60
2018-03-26T06:45:49.844Z,52.80
2018-03-26T06:48:18.866Z,44.40
2018-03-26T06:50:47.131Z,42.50
2018-03-26T06:53:16.163Z,45.43
2018-03-26T06:55:44.483Z,44.73
2018-03-26T06:58:12.738Z,47.07
2018-03-26T07:00:40.994Z,41.43
2018-03-26T07:03:09.299Z,47.10
2018-03-26T07:05:37.550Z,42.97
2018-03-26T07:08:05.802Z,43.73
2018-03-26T07:10:34.813Z,55.20
2018-03-26T07:13:03.086Z,41.13
2018-03-26T07:15:32.125Z,46.80
2018-03-26T07:18:00.439Z,41.20
2018-03-26T07:20:28.679Z,41.03
2018-03-26T07:22:56.936Z,58.63
2018-03-26T07:25:25.198Z,43.07
2018-03-26T07:27:54.242Z,42.97
2018-03-26T07:30:22.503Z,42.03
2018-03-26T07:32:50.764Z,50.23
2018-03-26T07:35:19.783Z,52.07
2018-03-26T07:37:48.138Z,46.90
2018-03-26T07:40:17.197Z,46.20
2018-03-26T07:42:45.507Z,53.27
2018-03-26T07:45:13.790Z,48.60
2018-03-26T07:47:42.088Z,50.10
2018-03-26T07:50:11.456Z,46.37
2018-03-26T07:52:39.783Z,50.60
2018-03-26T07:55:08.832Z,47.47
2018-03-26T07:57:37.090Z,47.40
2018-03-26T08:00:05.347Z,48.10
2018-03-26T08:02:34.357Z,48.73
2018-03-26T08:05:02.930Z,50.30
2018-03-26T08:07:31.488Z,51.10
2018-03-26T08:10:00.076Z,49.10
2018-03-26T08:12:28.561Z,48.27
2018-03-26T08:14:57.148Z,46.63
2018-03-26T08:17:25.669Z,54.07
2018-03-26T08:19:54.325Z,49.47
2018-03-26T08:22:23.633Z,50.20
2018-03-26T08:24:52.223Z,43.07
2018-03-26T08:27:21.628Z,47.57
2018-03-26T08:29:50.228Z,45.17
2018-03-26T08:32:19.520Z,47.63
2018-03-26T08:34:48.723Z,42.43
2018-03-26T08:37:18.032Z,36.73
2018-03-26T08:39:46.389Z,43.73
2018-03-26T08:42:14.727Z,38.10
2018-03-26T08:44:42.945Z,35.83
2018-03-26T08:47:11.202Z,39.13
2018-03-26T08:49:39.514Z,35.80
2018-03-26T08:52:07.777Z,37.53
2018-03-26T08:54:36.085Z,35.70
2018-03-26T08:57:04.342Z,39.47
2018-03-26T08:59:32.666Z,32.73
2018-03-26T09:02:00.979Z,35.43
2018-03-26T09:04:29.257Z,38.07
2018-03-26T09:06:57.540Z,36.37
2018-03-26T09:09:25.810Z,33.37
2018-03-26T09:11:54.145Z,35.33
2018-03-26T09:14:22.421Z,38.43
2018-03-26T09:16:50.698Z,34.80
2018-03-26T09:19:18.955Z,39.50
2018-03-26T09:21:47.289Z,37.90
2018-03-26T09:24:15.554Z,38.13
2018-03-26T09:26:43.824Z,33.90
2018-03-26T09:29:12.093Z,35.40
2018-03-26T09:31:40.343Z,32.83
2018-03-26T09:34:08.621Z,34.90
2018-03-26T09:36:37.851Z,34.67
2018-03-26T09:39:06.154Z,36.70
2018-03-26T09:41:34.399Z,33.93
2018-03-26T09:44:02.684Z,30.07
2018-03-26T09:46:30.944Z,29.73
2018-03-26T09:48:59.978Z,34.80
2018-03-26T09:51:28.229Z,34.23
2018-03-26T09:53:57.268Z,31.60
2018-03-26T09:56:25.527Z,32.70
2018-03-26T09:58:53.815Z,34.70
2018-03-26T10:01:22.078Z,37.03
2018-03-26T10:03:50.357Z,36.60
2018-03-26T10:06:18.624Z,32.20
2018-03-26T10:08:47.665Z,31.37
2018-03-26T10:11:15.928Z,33.80
2018-03-26T10:13:44.225Z,32.57
2018-03-26T10:16:12.518Z,33.90
2018-03-26T10:18:40.786Z,36.80
2018-03-26T10:21:09.076Z,34.30
2018-03-26T10:23:37.372Z,31.80
2018-03-26T10:26:05.631Z,36.20
2018-03-26T10:28:33.898Z,37.83
2018-03-26T10:31:02.165Z,38.73
2018-03-26T10:33:30.454Z,34.10
2018-03-26T10:35:58.706Z,38.03
2018-03-26T10:38:27.759Z,36.20
2018-03-26T10:40:56.031Z,39.50
2018-03-26T10:43:24.307Z,34.20
2018-03-26T10:45:52.558Z,34.83
2018-03-26T10:48:21.575Z,37.13
2018-03-26T10:50:49.838Z,38.10
2018-03-26T10:53:19.672Z,37.00
2018-03-26T10:55:47.944Z,34.83
2018-03-26T10:58:16.962Z,30.70
2018-03-26T11:00:45.583Z,34.60
2018-03-26T11:03:13.929Z,36.87
2018-03-26T11:05:42.572Z,40.27
2018-03-26T11:08:11.265Z,41.60
2018-03-26T11:10:40.673Z,38.37
2018-03-26T11:13:09.165Z,34.53
2018-03-26T11:15:37.565Z,36.10
2018-03-26T11:18:05.964Z,39.00
2018-03-26T11:20:34.647Z,41.97
2018-03-26T11:23:03.770Z,42.17
2018-03-26T11:25:32.034Z,38.57
2018-03-26T11:28:01.087Z,42.83
2018-03-26T11:30:29.348Z,41.90
2018-03-26T11:32:57.606Z,42.23
2018-03-26T11:35:25.878Z,40.90
2018-03-26T11:37:54.142Z,44.03
2018-03-26T11:40:23.177Z,46.57
2018-03-26T11:42:51.446Z,43.73
2018-03-26T11:45:19.725Z,45.57
2018-03-26T11:47:47.969Z,45.23
2018-03-26T11:50:17.009Z,44.43
2018-03-26T11:52:45.261Z,46.10
2018-03-26T11:55:14.363Z,42.80
2018-03-26T11:57:42.581Z,46.43
2018-03-26T12:00:10.854Z,51.77
2018-03-26T12:02:39.133Z,48.27
2018-03-26T12:05:07.761Z,45.27
2018-03-26T12:07:36.348Z,50.03
2018-03-26T12:10:04.835Z,48.80
2018-03-26T12:12:33.365Z,54.03
2018-03-26T12:15:02.059Z,50.83
2018-03-26T12:17:30.611Z,50.77
2018-03-26T12:20:12.246Z,47.23
2018-03-26T12:22:40.514Z,47.97
2018-03-26T12:25:11.483Z,50.77
2018-03-26T12:27:51.869Z,52.30
2018-03-26T12:30:21.038Z,49.37
2018-03-26T12:32:49.290Z,46.83
2018-03-26T12:35:30.279Z,51.33
2018-03-26T12:37:59.680Z,46.43
2018-03-26T12:40:40.564Z,46.17
2018-03-26T12:43:09.800Z,50.57
2018-03-26T12:45:49.812Z,52.47
2018-03-26T12:48:18.828Z,50.33
2018-03-26T12:50:59.096Z,51.23
2018-03-26T12:53:27.349Z,56.57
2018-03-26T12:55:56.378Z,48.20
2018-03-26T12:58:36.898Z,48.87
2018-03-26T13:01:17.239Z,52.47
2018-03-26T13:03:45.658Z,53.20
2018-03-26T13:06:15.048Z,50.67
2018-03-26T13:08:43.643Z,51.13
2018-03-26T13:11:13.049Z,47.70
2018-03-26T13:13:43.180Z,46.40
2018-03-26T13:16:12.593Z,49.60
2018-03-26T13:18:41.113Z,48.00
2018-03-26T13:21:09.611Z,51.80
2018-03-26T13:23:38.257Z,53.90
2018-03-26T13:26:06.841Z,49.57
2018-03-26T13:28:35.533Z,54.53
2018-03-26T13:31:04.119Z,57.17
2018-03-26T13:33:32.811Z,56.33
2018-03-26T13:36:01.247Z,50.67
2018-03-26T13:38:29.507Z,51.73
2018-03-26T13:40:58.546Z,49.33
2018-03-26T13:43:26.809Z,55.07
2018-03-26T13:45:55.082Z,49.20
2018-03-26T13:48:23.394Z,51.93
2018-03-26T13:50:51.678Z,53.80
2018-03-26T13:53:19.922Z,50.10
2018-03-26T13:55:48.189Z,50.33
2018-03-26T13:58:17.251Z,48.93
2018-03-26T14:00:45.494Z,49.53
2018-03-26T14:03:13.770Z,56.07
2018-03-26T14:05:42.064Z,57.77
2018-03-26T14:08:22.391Z,48.93
2018-03-26T14:11:02.686Z,48.57
2018-03-26T14:16:28.786Z,50.80
2018-03-26T14:18:57.018Z,56.00
2018-03-26T14:21:25.307Z,49.47
2018-03-26T14:23:53.558Z,49.17
2018-03-26T14:26:21.826Z,52.77
2018-03-26T14:28:50.173Z,52.60
2018-03-26T14:31:18.435Z,51.03
2018-03-26T14:33:46.690Z,52.13
2018-03-26T14:36:15.714Z,54.90
2018-03-26T14:38:43.978Z,54.23
2018-03-26T14:41:12.264Z,62.13
2018-03-26T14:43:41.303Z,57.80
2018-03-26T14:46:09.593Z,59.97
2018-03-26T14:48:37.847Z,57.47
2018-03-26T14:51:06.108Z,51.00
2018-03-26T14:53:34.371Z,59.83
2018-03-26T14:56:05.046Z,54.60
2018-03-26T14:58:33.303Z,59.47
2018-03-26T15:01:02.337Z,53.70
2018-03-26T15:03:30.583Z,53.90
2018-03-26T15:05:59.700Z,54.93
2018-03-26T15:08:27.974Z,54.23
2018-03-26T15:10:56.243Z,49.67
2018-03-26T15:13:25.260Z,59.00
2018-03-26T15:15:53.583Z,52.37
2018-03-26T15:18:21.836Z,54.03
2018-03-26T15:20:50.085Z,49.33
2018-03-26T15:23:19.131Z,49.97
2018-03-26T15:25:47.407Z,47.60
2018-03-26T15:28:15.729Z,51.87
2018-03-26T15:30:44.091Z,49.93
2018-03-26T15:33:12.351Z,52.00
2018-03-26T15:35:40.627Z,54.20
2018-03-26T15:38:08.930Z,51.07
2018-03-26T15:40:37.189Z,57.33
2018-03-26T15:43:05.493Z,53.03
2018-03-26T15:45:33.734Z,59.23
2018-03-26T15:48:02.004Z,63.30
2018-03-26T15:50:31.177Z,67.10
2018-03-26T15:53:00.225Z,68.67
2018-03-26T15:55:28.489Z,61.43
2018-03-26T15:57:57.509Z,64.83
2018-03-26T16:00:25.774Z,62.80
2018-03-26T16:02:59.758Z,66.00
2018-03-26T16:05:28.067Z,63.23
2018-03-26T16:07:57.146Z,69.43
2018-03-26T16:10:25.517Z,67.03
2018-03-26T16:12:53.785Z,66.33
2018-03-26T16:15:22.105Z,62.43
2018-03-26T16:17:51.127Z,63.83
2018-03-26T16:20:19.379Z,61.67
2018-03-26T16:22:48.423Z,69.93
2018-03-26T16:25:16.684Z,66.07
2018-03-26T16:27:44.946Z,64.40
2018-03-26T16:30:13.998Z,62.57
2018-03-26T16:32:42.250Z,64.97
2018-03-26T16:35:10.520Z,62.40
2018-03-26T16:37:38.815Z,63.70
2018-03-26T16:40:07.186Z,62.17
2018-03-26T16:42:42.463Z,62.37
2018-03-26T16:45:10.728Z,83.27
2018-03-26T16:47:39.021Z,66.80
2018-03-26T16:50:07.295Z,74.03
2018-03-26T16:52:35.564Z,70.20
2018-03-26T16:55:03.814Z,65.93
2018-03-26T16:57:32.862Z,64.93
2018-03-26T17:00:01.132Z,61.93
2018-03-26T17:02:29.405Z,63.40
2018-03-26T17:04:57.662Z,61.63
2018-03-26T17:07:26.701Z,65.13
2018-03-26T17:09:55.778Z,68.53
2018-03-26T17:12:24.042Z,65.27
2018-03-26T17:14:52.358Z,64.70
2018-03-26T17:17:20.628Z,72.60
2018-03-26T17:19:48.871Z,68.17
2018-03-26T17:22:17.907Z,64.33
2018-03-26T17:24:46.514Z,65.10
2018-03-26T17:27:14.787Z,69.23
2018-03-26T17:29:43.078Z,74.63
2018-03-26T17:32:11.338Z,64.40
2018-03-26T17:34:39.591Z,64.47
2018-03-26T17:37:08.618Z,69.20
2018-03-26T17:39:36.875Z,62.07
2018-03-26T17:42:06.008Z,70.60
2018-03-26T17:44:34.267Z,62.93
2018-03-26T17:47:03.320Z,65.93
2018-03-26T17:49:31.822Z,66.40
2018-03-26T17:52:00.311Z,72.70
2018-03-26T17:54:28.569Z,66.73
2018-03-26T17:56:56.840Z,62.53
2018-03-26T17:59:25.112Z,66.47
2018-03-26T18:01:53.563Z,73.40
2018-03-26T18:04:22.622Z,69.93
2018-03-26T18:06:50.917Z,62.10
2018-03-26T18:11:39.968Z,71.53
2018-03-26T18:14:08.241Z,65.03
2018-03-26T18:16:36.503Z,69.53
2018-03-26T18:19:05.543Z,61.27
2018-03-26T18:21:33.808Z,65.80
2018-03-26T18:24:02.086Z,66.43
2018-03-26T18:26:31.173Z,63.57
2018-03-26T18:28:59.454Z,71.33
2018-03-26T18:31:27.715Z,66.30
2018-03-26T18:33:56.763Z,62.50
2018-03-26T18:36:25.004Z,66.63
2018-03-26T18:38:53.274Z,70.93
2018-03-26T18:41:22.297Z,63.83
2018-03-26T18:43:50.582Z,64.40
2018-03-26T18:46:18.850Z,69.70
2018-03-26T18:48:47.118Z,67.57
2018-03-26T18:51:16.177Z,72.80
2018-03-26T18:53:44.446Z,68.00
2018-03-26T18:56:12.756Z,62.17
2018-03-26T18:58:41.036Z,67.13
2018-03-26T19:01:10.807Z,68.40
2018-03-26T19:03:39.069Z,78.70
2018-03-26T19:06:07.374Z,69.37
2018-03-26T19:08:35.649Z,63.67
2018-03-26T19:11:03.910Z,65.50
2018-03-26T19:13:32.978Z,67.03
2018-03-26T19:16:01.220Z,73.93
2018-03-26T19:18:29.509Z,67.90
2018-03-26T19:20:57.745Z,70.53
2018-03-26T19:23:26.791Z,73.53
2018-03-26T19:25:55.047Z,64.77
2018-03-26T19:28:23.338Z,68.23
2018-03-26T19:31:00.201Z,66.40
2018-03-26T19:33:29.222Z,61.70
2018-03-26T19:35:57.485Z,66.53
2018-03-26T19:38:25.761Z,63.50
2018-03-26T19:40:54.774Z,67.20
2018-03-26T19:43:23.080Z,66.07
2018-03-26T19:45:51.338Z,66.30
2018-03-26T19:48:19.773Z,67.53
2018-03-26T19:50:48.035Z,62.47
2018-03-26T19:53:16.301Z,70.60
2018-03-26T19:55:44.574Z,67.30
2018-03-26T19:58:12.875Z,59.80
2018-03-26T20:00:41.163Z,46.10
2018-03-26T20:03:09.447Z,35.43
2018-03-26T20:05:37.705Z,35.30
2018-03-26T20:08:05.970Z,33.67
2018-03-26T20:10:34.251Z,26.63
2018-03-26T20:13:03.255Z,25.93
2018-03-26T20:15:31.517Z,20.57
2018-03-26T20:17:59.785Z,23.03
2018-03-26T20:20:28.023Z,20.53
2018-03-26T20:22:56.892Z,23.27
2018-03-26T20:25:25.147Z,21.70
2018-03-26T20:27:54.185Z,16.47
2018-03-26T20:30:22.444Z,18.33
2018-03-26T20:32:50.711Z,15.73
2018-03-26T20:35:19.738Z,17.90
2018-03-26T20:37:47.989Z,16.60
2018-03-26T20:40:17.125Z,14.10
2018-03-26T20:42:45.384Z,15.13
2018-03-26T20:45:13.641Z,14.83
2018-03-26T20:47:42.696Z,14.73
2018-03-26T20:50:10.984Z,14.73
2018-03-26T20:52:39.234Z,15.67
2018-03-26T20:55:07.573Z,13.63
2018-03-26T20:57:35.783Z,14.13
2018-03-26T21:00:04.045Z,14.23
2018-03-26T21:02:33.089Z,13.27
2018-03-26T21:05:01.353Z,12.97
2018-03-26T21:07:29.606Z,14.77
2018-03-26T21:09:58.640Z,11.70
2018-03-26T21:12:26.889Z,17.87
2018-03-26T21:14:55.919Z,12.40
2018-03-26T21:17:24.174Z,12.80
2018-03-26T21:19:53.299Z,11.63
2018-03-26T21:22:21.546Z,9.83
2018-03-26T21:24:50.590Z,10.43
2018-03-26T21:27:18.826Z,10.00
2018-03-26T21:29:47.868Z,11.63
2018-03-26T21:32:16.120Z,10.00
2018-03-26T21:34:44.418Z,22.07
2018-03-26T21:37:12.670Z,19.00
2018-03-26T21:39:44.193Z,18.43
2018-03-26T21:42:12.498Z,16.20
2018-03-26T21:44:40.746Z,16.43
2018-03-26T21:47:09.016Z,16.57
2018-03-26T21:49:37.282Z,15.60
2018-03-26T21:52:06.306Z,16.67
2018-03-26T21:54:34.572Z,13.27
2018-03-26T21:57:02.890Z,12.97
2018-03-26T21:59:31.172Z,16.10
2018-03-26T22:01:59.442Z,11.00
2018-03-26T22:04:27.682Z,15.20
2018-03-26T22:06:56.005Z,12.30
2018-03-26T22:09:24.253Z,14.00
2018-03-26T22:11:52.523Z,15.53
2018-03-26T22:14:20.770Z,12.60
2018-03-26T22:16:49.031Z,12.40
2018-03-26T22:19:17.290Z,14.13
2018-03-26T22:21:45.562Z,18.70
2018-03-26T22:24:13.858Z,13.37
2018-03-26T22:26:42.162Z,14.00
2018-03-26T22:29:10.526Z,12.40
2018-03-26T22:31:38.778Z,12.90
2018-03-26T22:34:07.036Z,10.83
2018-03-26T22:36:36.100Z,12.10
2018-03-26T22:39:04.359Z,11.13
2018-03-26T22:41:32.611Z,13.37
2018-03-26T22:44:00.872Z,11.00
2018-03-26T22:46:29.202Z,11.57
2018-03-26T22:48:57.463Z,13.07
2018-03-26T22:51:25.701Z,17.07
2018-03-26T22:53:54.046Z,22.50
2018-03-26T22:56:22.297Z,15.40
2018-03-26T22:58:50.590Z,14.93
2018-03-26T23:01:18.843Z,15.53
2018-03-26T23:03:47.867Z,15.10
2018-03-26T23:06:16.165Z,15.80
2018-03-26T23:08:44.485Z,11.53
2018-03-26T23:11:12.727Z,12.50
2018-03-26T23:13:40.986Z,12.60
2018-03-26T23:16:09.273Z,16.57
2018-03-26T23:18:37.559Z,11.37
2018-03-26T23:21:05.807Z,13.00
2018-03-26T23:23:34.835Z,16.10
2018-03-26T23:26:03.129Z,13.13
2018-03-26T23:28:31.381Z,13.47
2018-03-26T23:30:59.686Z,13.40
2018-03-26T23:33:27.943Z,13.57
2018-03-26T23:35:56.258Z,13.00
2018-03-26T23:38:24.533Z,13.23
2018-03-26T23:40:52.800Z,13.60
2018-03-26T23:43:21.043Z,16.40
2018-03-26T23:45:50.084Z,11.80
2018-03-26T23:48:19.138Z,14.50
2018-03-26T23:50:48.189Z,13.33
2018-03-26T23:53:16.439Z,13.50
2018-03-26T23:55:45.573Z,14.23
2018-03-26T23:58:13.860Z,13.53
